sensor_id;sensor_type;location;lat;lon;timestamp;pressure;altitude;pressure_sealevel;temperature;humidity
21449;BME280;10885;52.830;13.788;2023-04-26T05:13:42;100949.97;;;3.46;73.71
21449;BME280;10885;52.830;13.788;2023-04-26T05:19:04;100952.22;;;3.43;73.89
21449;BME280;10885;52.830;13.788;2023-04-26T05:24:28;100946.50;;;3.54;73.93
21449;BME280;10885;52.830;13.788;2023-04-26T05:29:51;100957.66;;;3.56;72.67
21449;BME280;10885;52.830;13.788;2023-04-26T05:35:47;100958.28;;;3.73;72.48
21449;BME280;10885;52.830;13.788;2023-04-26T05:41:09;100981.47;;;3.86;72.67
21449;BME280;10885;52.830;13.788;2023-04-26T05:46:31;100982.22;;;4.04;71.72
21449;BME280;10885;52.830;13.788;2023-04-26T05:51:52;100978.72;;;4.12;71.47
21449;BME280;10885;52.830;13.788;2023-04-26T05:57:13;100987.00;;;4.39;70.81
21449;BME280;10885;52.830;13.788;2023-04-26T06:02:35;100985.16;;;4.76;69.61
21449;BME280;10885;52.830;13.788;2023-04-26T06:07:56;100998.78;;;4.97;68.64
21449;BME280;10885;52.830;13.788;2023-04-26T06:13:17;101002.00;;;5.05;68.30
21449;BME280;10885;52.830;13.788;2023-04-26T06:18:38;100985.16;;;5.15;67.85
21449;BME280;10885;52.830;13.788;2023-04-26T06:24:00;101009.38;;;5.51;67.38
21449;BME280;10885;52.830;13.788;2023-04-26T06:29:21;100998.94;;;5.89;65.82
21449;BME280;10885;52.830;13.788;2023-04-26T06:34:43;100997.91;;;6.18;64.08
21449;BME280;10885;52.830;13.788;2023-04-26T06:40:06;100997.88;;;6.49;63.90
21449;BME280;10885;52.830;13.788;2023-04-26T06:45:28;100999.97;;;6.65;62.12
21449;BME280;10885;52.830;13.788;2023-04-26T06:50:50;101005.19;;;7.21;61.27
21449;BME280;10885;52.830;13.788;2023-04-26T06:56:10;101014.56;;;7.66;59.81
21449;BME280;10885;52.830;13.788;2023-04-26T07:01:33;101007.88;;;7.90;57.84
21449;BME280;10885;52.830;13.788;2023-04-26T07:06:54;101009.00;;;8.05;56.54
21449;BME280;10885;52.830;13.788;2023-04-26T07:12:15;101005.97;;;8.56;56.20
21449;BME280;10885;52.830;13.788;2023-04-26T07:17:36;101021.69;;;9.10;54.45
21449;BME280;10885;52.830;13.788;2023-04-26T07:22:57;101010.69;;;8.99;52.28
21449;BME280;10885;52.830;13.788;2023-04-26T07:28:18;101018.31;;;10.37;51.02
21449;BME280;10885;52.830;13.788;2023-04-26T07:33:39;101015.16;;;13.81;44.00
21449;BME280;10885;52.830;13.788;2023-04-26T07:39:00;101018.72;;;16.26;36.27
21449;BME280;10885;52.830;13.788;2023-04-26T07:44:21;101023.47;;;16.80;34.78
21449;BME280;10885;52.830;13.788;2023-04-26T07:49:42;101023.03;;;20.48;29.06
21449;BME280;10885;52.830;13.788;2023-04-26T07:55:04;101028.13;;;19.45;29.89
21449;BME280;10885;52.830;13.788;2023-04-26T08:00:25;101037.06;;;17.66;30.85
21449;BME280;10885;52.830;13.788;2023-04-26T08:05:47;101033.88;;;17.26;33.96
21449;BME280;10885;52.830;13.788;2023-04-26T08:11:08;101031.41;;;16.41;34.43
21449;BME280;10885;52.830;13.788;2023-04-26T08:16:32;101035.38;;;14.42;38.91
21449;BME280;10885;52.830;13.788;2023-04-26T08:21:53;101038.97;;;14.98;37.97
21449;BME280;10885;52.830;13.788;2023-04-26T08:27:14;101031.78;;;15.49;35.61
21449;BME280;10885;52.830;13.788;2023-04-26T08:32:35;101041.22;;;14.92;36.84
21449;BME280;10885;52.830;13.788;2023-04-26T08:37:56;101040.00;;;13.63;35.64
21449;BME280;10885;52.830;13.788;2023-04-26T08:43:17;101027.63;;;12.93;38.97
21449;BME280;10885;52.830;13.788;2023-04-26T08:48:39;101038.91;;;12.64;39.38
21449;BME280;10885;52.830;13.788;2023-04-26T08:54:02;101039.91;;;11.78;39.75
21449;BME280;10885;52.830;13.788;2023-04-26T08:59:25;101051.03;;;10.81;41.71
21449;BME280;10885;52.830;13.788;2023-04-26T09:04:47;101044.66;;;11.15;41.02
21449;BME280;10885;52.830;13.788;2023-04-26T09:10:10;101047.91;;;13.35;37.10
21449;BME280;10885;52.830;13.788;2023-04-26T09:15:31;101037.88;;;13.56;36.82
21449;BME280;10885;52.830;13.788;2023-04-26T09:21:06;101048.78;;;12.87;37.81
21449;BME280;10885;52.830;13.788;2023-04-26T09:26:28;101060.28;;;11.47;39.72
21449;BME280;10885;52.830;13.788;2023-04-26T09:31:49;101079.00;;;10.12;43.34
21449;BME280;10885;52.830;13.788;2023-04-26T09:37:10;101070.88;;;9.68;47.41
21449;BME280;10885;52.830;13.788;2023-04-26T09:42:34;101064.44;;;10.50;46.88
21449;BME280;10885;52.830;13.788;2023-04-26T09:48:12;101057.00;;;12.50;40.56
21449;BME280;10885;52.830;13.788;2023-04-26T09:53:40;101061.16;;;12.48;38.70
21449;BME280;10885;52.830;13.788;2023-04-26T09:59:02;101062.47;;;11.97;39.61
21449;BME280;10885;52.830;13.788;2023-04-26T10:04:25;101080.22;;;10.69;43.71
21449;BME280;10885;52.830;13.788;2023-04-26T10:09:46;101088.00;;;10.19;47.61
21449;BME280;10885;52.830;13.788;2023-04-26T10:15:08;101078.94;;;10.89;46.59
21449;BME280;10885;52.830;13.788;2023-04-26T10:20:29;101081.50;;;12.90;43.31
21449;BME280;10885;52.830;13.788;2023-04-26T10:25:51;101067.03;;;14.92;37.56
21449;BME280;10885;52.830;13.788;2023-04-26T10:31:12;101071.06;;;14.51;37.40
21449;BME280;10885;52.830;13.788;2023-04-26T10:36:33;101082.63;;;13.58;38.08
21449;BME280;10885;52.830;13.788;2023-04-26T10:42:27;101065.41;;;13.57;36.58
21449;BME280;10885;52.830;13.788;2023-04-26T10:59:09;101072.22;;;10.78;41.45
21449;BME280;10885;52.830;13.788;2023-04-26T11:04:52;101052.19;;;10.46;41.39
21449;BME280;10885;52.830;13.788;2023-04-26T11:10:21;101066.03;;;10.74;41.76
21449;BME280;10885;52.830;13.788;2023-04-26T11:15:42;101058.41;;;12.30;38.16
21449;BME280;10885;52.830;13.788;2023-04-26T11:21:05;101060.59;;;13.79;36.04
21449;BME280;10885;52.830;13.788;2023-04-26T11:26:31;101041.75;;;15.03;34.78
21449;BME280;10885;52.830;13.788;2023-04-26T11:31:55;101053.97;;;14.53;33.58
21449;BME280;10885;52.830;13.788;2023-04-26T11:37:17;101048.53;;;14.12;35.47
21449;BME280;10885;52.830;13.788;2023-04-26T11:42:38;101044.75;;;13.24;35.21
21449;BME280;10885;52.830;13.788;2023-04-26T11:48:01;101050.19;;;12.82;35.60
21449;BME280;10885;52.830;13.788;2023-04-26T11:53:23;101051.88;;;13.61;34.66
21449;BME280;10885;52.830;13.788;2023-04-26T11:58:48;101055.44;;;14.13;33.89
21449;BME280;10885;52.830;13.788;2023-04-26T12:04:10;101059.56;;;14.10;33.52
21449;BME280;10885;52.830;13.788;2023-04-26T12:09:31;101061.47;;;13.80;33.75
21449;BME280;10885;52.830;13.788;2023-04-26T12:14:52;101083.84;;;13.64;34.59
21449;BME280;10885;52.830;13.788;2023-04-26T12:20:14;101073.94;;;13.72;33.59
21449;BME280;10885;52.830;13.788;2023-04-26T12:25:37;101087.19;;;13.30;34.38
21449;BME280;10885;52.830;13.788;2023-04-26T12:30:59;101093.03;;;11.79;37.28
21449;BME280;10885;52.830;13.788;2023-04-26T12:36:23;101095.47;;;11.34;39.49
21449;BME280;10885;52.830;13.788;2023-04-26T12:41:44;101086.59;;;12.29;40.06
21449;BME280;10885;52.830;13.788;2023-04-26T12:47:05;101087.63;;;14.90;35.06
21449;BME280;10885;52.830;13.788;2023-04-26T12:52:26;101071.75;;;15.19;34.28
21449;BME280;10885;52.830;13.788;2023-04-26T12:57:48;101071.44;;;15.30;32.59
21449;BME280;10885;52.830;13.788;2023-04-26T13:03:09;101081.94;;;14.62;33.45
21449;BME280;10885;52.830;13.788;2023-04-26T13:08:34;101085.50;;;14.13;32.14
21449;BME280;10885;52.830;13.788;2023-04-26T13:13:55;101100.31;;;13.35;34.17
21449;BME280;10885;52.830;13.788;2023-04-26T13:19:16;101097.06;;;12.62;35.10
21449;BME280;10885;52.830;13.788;2023-04-26T13:24:37;101098.47;;;12.27;35.12
21449;BME280;10885;52.830;13.788;2023-04-26T13:29:58;101088.78;;;12.82;34.63
21449;BME280;10885;52.830;13.788;2023-04-26T13:35:19;101083.75;;;13.46;33.65
21449;BME280;10885;52.830;13.788;2023-04-26T13:40:40;101087.00;;;13.75;32.68
21449;BME280;10885;52.830;13.788;2023-04-26T13:46:01;101092.50;;;13.33;34.14
21449;BME280;10885;52.830;13.788;2023-04-26T13:51:22;101092.94;;;13.41;34.63
21449;BME280;10885;52.830;13.788;2023-04-26T13:56:44;101091.22;;;14.07;33.71
21449;BME280;10885;52.830;13.788;2023-04-26T14:02:06;101089.38;;;14.74;30.29
21449;BME280;10885;52.830;13.788;2023-04-26T14:07:27;101095.81;;;14.13;30.43
21449;BME280;10885;52.830;13.788;2023-04-26T14:12:48;101100.59;;;13.72;32.01
21449;BME280;10885;52.830;13.788;2023-04-26T14:18:09;101100.56;;;13.56;32.84
21449;BME280;10885;52.830;13.788;2023-04-26T14:23:30;101102.88;;;12.89;34.86
21449;BME280;10885;52.830;13.788;2023-04-26T14:28:52;101117.53;;;12.30;36.02
21449;BME280;10885;52.830;13.788;2023-04-26T14:34:12;101115.84;;;12.16;36.53
21449;BME280;10885;52.830;13.788;2023-04-26T14:39:33;101120.88;;;12.14;36.61
21449;BME280;10885;52.830;13.788;2023-04-26T14:44:58;101118.66;;;12.95;36.76
21449;BME280;10885;52.830;13.788;2023-04-26T14:50:18;101123.38;;;13.81;34.46
21449;BME280;10885;52.830;13.788;2023-04-26T14:55:39;101124.63;;;13.57;33.54
21449;BME280;10885;52.830;13.788;2023-04-26T15:01:00;101123.22;;;12.84;34.48
21449;BME280;10885;52.830;13.788;2023-04-26T15:06:22;101133.16;;;12.48;35.55
21449;BME280;10885;52.830;13.788;2023-04-26T15:11:43;101131.13;;;12.58;35.80
21449;BME280;10885;52.830;13.788;2023-04-26T15:17:04;101130.75;;;12.37;36.16
21449;BME280;10885;52.830;13.788;2023-04-26T15:22:25;101119.56;;;12.21;37.03
21449;BME280;10885;52.830;13.788;2023-04-26T15:27:47;101132.91;;;11.87;36.91
21449;BME280;10885;52.830;13.788;2023-04-26T15:33:10;101140.13;;;11.65;37.33
21449;BME280;10885;52.830;13.788;2023-04-26T15:38:33;101142.16;;;11.42;37.73
21449;BME280;10885;52.830;13.788;2023-04-26T15:43:54;101145.59;;;11.29;38.52
21449;BME280;10885;52.830;13.788;2023-04-26T15:49:16;101152.13;;;10.98;41.16
21449;BME280;10885;52.830;13.788;2023-04-26T15:54:37;101151.16;;;11.22;41.86
21449;BME280;10885;52.830;13.788;2023-04-26T15:59:58;101142.81;;;11.94;40.12
21449;BME280;10885;52.830;13.788;2023-04-26T16:05:19;101148.13;;;12.41;39.37
21449;BME280;10885;52.830;13.788;2023-04-26T16:10:40;101141.75;;;12.34;39.16
21449;BME280;10885;52.830;13.788;2023-04-26T16:16:05;101137.59;;;12.51;39.23
21449;BME280;10885;52.830;13.788;2023-04-26T16:21:28;101131.72;;;12.98;38.43
21449;BME280;10885;52.830;13.788;2023-04-26T16:26:50;101138.31;;;13.24;37.86
21449;BME280;10885;52.830;13.788;2023-04-26T16:32:12;101140.63;;;12.73;38.03
21449;BME280;10885;52.830;13.788;2023-04-26T16:37:34;101136.97;;;12.55;39.12
21449;BME280;10885;52.830;13.788;2023-04-26T16:42:55;101130.84;;;12.53;38.90
21449;BME280;10885;52.830;13.788;2023-04-26T16:48:16;101135.25;;;11.69;39.09
21449;BME280;10885;52.830;13.788;2023-04-26T16:53:37;101139.03;;;11.06;39.67
21449;BME280;10885;52.830;13.788;2023-04-26T16:58:58;101146.78;;;10.68;40.47
21449;BME280;10885;52.830;13.788;2023-04-26T17:04:19;101149.19;;;10.40;41.00
21449;BME280;10885;52.830;13.788;2023-04-26T17:09:41;101154.84;;;10.10;42.18
21449;BME280;10885;52.830;13.788;2023-04-26T17:15:02;101161.81;;;10.00;42.90
21449;BME280;10885;52.830;13.788;2023-04-26T17:20:24;101161.84;;;9.88;44.31
21449;BME280;10885;52.830;13.788;2023-04-26T17:25:46;101162.53;;;9.85;43.83
21449;BME280;10885;52.830;13.788;2023-04-26T17:31:07;101172.44;;;9.81;44.27
21449;BME280;10885;52.830;13.788;2023-04-26T17:36:28;101176.81;;;9.70;44.79
21449;BME280;10885;52.830;13.788;2023-04-26T17:41:49;101177.97;;;9.62;44.88
21449;BME280;10885;52.830;13.788;2023-04-26T17:47:10;101180.34;;;9.23;46.93
21449;BME280;10885;52.830;13.788;2023-04-26T17:52:31;101176.00;;;9.22;47.14
21449;BME280;10885;52.830;13.788;2023-04-26T17:57:54;101172.69;;;9.23;47.63
21449;BME280;10885;52.830;13.788;2023-04-26T18:03:15;101176.25;;;9.25;46.93
21449;BME280;10885;52.830;13.788;2023-04-26T18:08:36;101178.88;;;9.15;48.78
21449;BME280;10885;52.830;13.788;2023-04-26T18:13:57;101184.22;;;9.06;49.07
21449;BME280;10885;52.830;13.788;2023-04-26T18:19:18;101187.22;;;9.01;49.41
21449;BME280;10885;52.830;13.788;2023-04-26T18:24:39;101188.88;;;8.88;49.74
21449;BME280;10885;52.830;13.788;2023-04-26T18:30:00;101195.31;;;8.83;49.50
21449;BME280;10885;52.830;13.788;2023-04-26T18:35:21;101200.91;;;8.78;50.13
21449;BME280;10885;52.830;13.788;2023-04-26T18:40:46;101201.91;;;8.80;50.71
21449;BME280;10885;52.830;13.788;2023-04-26T18:46:07;101210.91;;;8.86;51.99
21449;BME280;10885;52.830;13.788;2023-04-26T18:51:28;101227.47;;;8.80;51.33
21449;BME280;10885;52.830;13.788;2023-04-26T18:56:49;101234.53;;;8.72;52.82
21449;BME280;10885;52.830;13.788;2023-04-26T19:02:10;101237.88;;;8.71;54.08
21449;BME280;10885;52.830;13.788;2023-04-26T19:07:30;101244.41;;;8.67;54.57
21449;BME280;10885;52.830;13.788;2023-04-26T19:12:51;101242.75;;;8.68;55.31
21449;BME280;10885;52.830;13.788;2023-04-26T19:18:12;101247.41;;;8.62;56.40
21449;BME280;10885;52.830;13.788;2023-04-26T19:23:34;101251.41;;;8.58;57.41
21449;BME280;10885;52.830;13.788;2023-04-26T19:28:55;101243.81;;;8.48;57.30
21449;BME280;10885;52.830;13.788;2023-04-26T19:34:17;101250.34;;;8.44;59.75
21449;BME280;10885;52.830;13.788;2023-04-26T19:39:37;101244.91;;;8.29;58.59
21449;BME280;10885;52.830;13.788;2023-04-26T19:44:59;101252.03;;;8.11;59.21
21449;BME280;10885;52.830;13.788;2023-04-26T19:50:20;101257.31;;;8.03;60.03
21449;BME280;10885;52.830;13.788;2023-04-26T19:55:41;101257.38;;;7.92;60.40
21449;BME280;10885;52.830;13.788;2023-04-26T20:01:02;101261.66;;;7.71;60.90
21449;BME280;10885;52.830;13.788;2023-04-26T20:06:23;101264.09;;;7.70;59.76
21449;BME280;10885;52.830;13.788;2023-04-26T20:11:44;101262.06;;;7.66;60.53
21449;BME280;10885;52.830;13.788;2023-04-26T20:17:05;101268.59;;;7.62;60.93
21449;BME280;10885;52.830;13.788;2023-04-26T20:22:26;101273.19;;;7.66;61.79
21449;BME280;10885;52.830;13.788;2023-04-26T20:27:47;101277.63;;;7.69;61.61
21449;BME280;10885;52.830;13.788;2023-04-26T20:33:08;101266.41;;;7.67;61.44
21449;BME280;10885;52.830;13.788;2023-04-26T20:38:29;101275.09;;;7.69;61.87
21449;BME280;10885;52.830;13.788;2023-04-26T20:43:50;101281.84;;;7.68;62.64
21449;BME280;10885;52.830;13.788;2023-04-26T20:49:12;101277.28;;;7.64;62.72
21449;BME280;10885;52.830;13.788;2023-04-26T20:54:33;101286.34;;;7.61;62.88
21449;BME280;10885;52.830;13.788;2023-04-26T20:59:54;101285.97;;;7.56;63.88
21449;BME280;10885;52.830;13.788;2023-04-26T21:05:15;101281.66;;;7.45;63.76
21449;BME280;10885;52.830;13.788;2023-04-26T21:10:36;101282.19;;;7.41;64.01
21449;BME280;10885;52.830;13.788;2023-04-26T21:15:57;101280.78;;;7.34;64.68
21449;BME280;10885;52.830;13.788;2023-04-26T21:21:18;101288.56;;;7.25;63.79
